Time;durP1;ratioP1;P1;durP2;ratioP2;P2;SDS_P1;SDS_P2;PMS_P1;PMS_P2;Temp;Humidity;BMP_temperature;BMP_pressure;BME280_temperature;BME280_humidity;BME280_pressure;Samples;Min_cycle;Max_cycle;Signal;HPM_P1;HPM_P2
2021/07/15 00:00:52;;;;;;;3.67;3.37;;;;;;;;;;5075198;28;20439;-63
2021/07/15 00:03:20;;;;;;;4.17;3.77;;;;;;;;;;5073640;28;20466;-63
2021/07/15 00:05:48;;;;;;;4.20;3.60;;;;;;;;;;5073553;28;20455;-63
2021/07/15 00:08:16;;;;;;;3.67;3.37;;;;;;;;;;5073453;28;20459;-64
2021/07/15 00:10:45;;;;;;;4.80;3.77;;;;;;;;;;5075356;28;20443;-63
2021/07/15 00:13:13;;;;;;;4.40;3.90;;;;;;;;;;5076718;28;20829;-64
2021/07/15 00:15:42;;;;;;;4.43;4.03;;;;;;;;;;5078704;28;20446;-63
2021/07/15 00:18:10;;;;;;;4.67;3.87;;;;;;;;;;5079638;28;20446;-63
2021/07/15 00:20:39;;;;;;;4.20;3.87;;;;;;;;;;5075570;28;20493;-64
2021/07/15 00:23:06;;;;;;;4.90;4.37;;;;;;;;;;5074663;28;20459;-63
2021/07/15 00:25:33;;;;;;;4.23;3.87;;;;;;;;;;5077868;28;20520;-63
2021/07/15 00:28:02;;;;;;;4.53;3.80;;;;;;;;;;5077180;28;20439;-63
2021/07/15 00:30:29;;;;;;;4.40;4.00;;;;;;;;;;5076920;28;21005;-64
2021/07/15 00:32:56;;;;;;;3.67;3.40;;;;;;;;;;5076713;28;21004;-64
2021/07/15 00:35:24;;;;;;;5.37;3.83;;;;;;;;;;5076976;28;20443;-64
2021/07/15 00:37:51;;;;;;;3.90;3.23;;;;;;;;;;5076764;28;20512;-63
2021/07/15 00:40:19;;;;;;;3.60;3.30;;;;;;;;;;5077384;28;20436;-64
2021/07/15 00:42:46;;;;;;;4.23;3.83;;;;;;;;;;5076817;28;20462;-64
2021/07/15 00:45:17;;;;;;;3.60;3.30;;;;;;;;;;5076976;28;20497;-65
2021/07/15 00:47:44;;;;;;;3.47;3.23;;;;;;;;;;5076851;28;20474;-63
2021/07/15 00:50:12;;;;;;;6.10;3.70;;;;;;;;;;5076505;28;20947;-63
2021/07/15 00:52:40;;;;;;;3.67;3.30;;;;;;;;;;5076269;28;20479;-63
2021/07/15 00:55:09;;;;;;;3.10;2.90;;;;;;;;;;5076638;28;20439;-63
2021/07/15 00:57:36;;;;;;;5.13;3.00;;;;;;;;;;5076352;28;20443;-64
2021/07/15 01:00:05;;;;;;;3.40;3.10;;;;;;;;;;5076641;28;20455;-63
2021/07/15 01:02:34;;;;;;;3.70;3.20;;;;;;;;;;5076149;28;20974;-61
2021/07/15 01:05:01;;;;;;;4.00;3.60;;;;;;;;;;5076661;28;20450;-64
2021/07/15 01:07:28;;;;;;;5.20;3.70;;;;;;;;;;5075938;28;20967;-63
2021/07/15 01:09:55;;;;;;;4.17;3.57;;;;;;;;;;5076109;28;20442;-64
2021/07/15 01:12:28;;;;;;;3.90;3.30;;;;;;;;;;5076006;28;20513;-64
2021/07/15 01:15:01;;;;;;;3.63;3.33;;;;;;;;;;5076087;28;20423;-63
2021/07/15 01:17:31;;;;;;;3.20;3.00;;;;;;;;;;5076368;28;20439;-63
2021/07/15 01:20:29;;;;;;;3.90;3.30;;;;;;;;;;5075960;28;20446;-63
2021/07/15 01:23:04;;;;;;;3.33;3.03;;;;;;;;;;5075881;28;20454;-64
2021/07/15 01:25:42;;;;;;;3.10;2.80;;;;;;;;;;5076479;28;20426;-63
2021/07/15 01:28:10;;;;;;;5.53;3.57;;;;;;;;;;5076122;28;20489;-64
2021/07/15 01:30:42;;;;;;;4.20;3.40;;;;;;;;;;5076041;28;20451;-64
2021/07/15 01:33:15;;;;;;;3.87;3.53;;;;;;;;;;5075956;28;20526;-64
2021/07/15 01:35:44;;;;;;;9.07;3.90;;;;;;;;;;5077235;28;20437;-65
2021/07/15 01:38:13;;;;;;;3.40;3.10;;;;;;;;;;5075614;28;21008;-65
2021/07/15 01:40:44;;;;;;;3.37;2.97;;;;;;;;;;5076216;28;20516;-65
2021/07/15 01:43:13;;;;;;;3.77;3.33;;;;;;;;;;5075514;28;20455;-66
2021/07/15 01:45:43;;;;;;;5.23;3.33;;;;;;;;;;5075985;28;20530;-65
2021/07/15 01:48:10;;;;;;;5.90;3.47;;;;;;;;;;5075871;28;20443;-65
2021/07/15 01:50:38;;;;;;;3.20;3.00;;;;;;;;;;5075497;28;20505;-64
2021/07/15 01:53:05;;;;;;;3.73;3.20;;;;;;;;;;5075625;28;20483;-65
2021/07/15 01:55:32;;;;;;;3.80;3.10;;;;;;;;;;5075855;28;20452;-65
2021/07/15 01:58:01;;;;;;;3.40;3.20;;;;;;;;;;5075720;28;20447;-66
2021/07/15 02:00:28;;;;;;;3.57;3.27;;;;;;;;;;5075511;28;20447;-65
2021/07/15 02:02:58;;;;;;;4.60;3.10;;;;;;;;;;5075334;28;20521;-66
2021/07/15 02:05:26;;;;;;;3.50;3.00;;;;;;;;;;5075136;28;20938;-65
2021/07/15 02:07:54;;;;;;;6.20;3.50;;;;;;;;;;5075287;28;20455;-65
2021/07/15 02:10:24;;;;;;;5.03;3.40;;;;;;;;;;5075586;28;20516;-65
2021/07/15 02:12:52;;;;;;;4.13;3.73;;;;;;;;;;5075150;28;20459;-66
2021/07/15 02:15:19;;;;;;;4.93;3.60;;;;;;;;;;5075272;28;20447;-65
2021/07/15 02:17:47;;;;;;;3.53;3.23;;;;;;;;;;5075222;28;20460;-65
2021/07/15 02:20:18;;;;;;;4.10;3.70;;;;;;;;;;5075117;28;20492;-64
2021/07/15 02:22:46;;;;;;;5.27;3.60;;;;;;;;;;5075565;28;20974;-63
2021/07/15 02:25:14;;;;;;;5.67;3.60;;;;;;;;;;5075381;28;20439;-66
2021/07/15 02:27:42;;;;;;;3.53;3.23;;;;;;;;;;5075201;28;20793;-64
2021/07/15 02:30:11;;;;;;;4.37;3.40;;;;;;;;;;5075071;28;20935;-65
2021/07/15 02:32:39;;;;;;;4.70;3.73;;;;;;;;;;5075406;28;20584;-66
2021/07/15 02:35:08;;;;;;;4.60;3.27;;;;;;;;;;5075165;28;20872;-66
2021/07/15 02:37:38;;;;;;;7.43;3.60;;;;;;;;;;5075314;28;20451;-65
2021/07/15 02:40:06;;;;;;;4.30;3.80;;;;;;;;;;5075836;28;20439;-66
2021/07/15 02:42:33;;;;;;;5.27;3.47;;;;;;;;;;5075564;28;20462;-65
2021/07/15 02:45:01;;;;;;;7.73;3.50;;;;;;;;;;5075978;28;20501;-65
2021/07/15 02:47:29;;;;;;;6.60;3.90;;;;;;;;;;5074703;28;20442;-65
2021/07/15 02:49:56;;;;;;;5.87;3.77;;;;;;;;;;5075301;28;20505;-68
2021/07/15 02:52:23;;;;;;;4.63;3.50;;;;;;;;;;5074382;28;20883;-65
2021/07/15 02:54:52;;;;;;;4.10;3.27;;;;;;;;;;5074365;28;20528;-66
2021/07/15 02:57:24;;;;;;;4.43;4.03;;;;;;;;;;5074301;28;20505;-65
2021/07/15 02:59:56;;;;;;;6.60;3.77;;;;;;;;;;5074747;28;20427;-67
2021/07/15 03:02:26;;;;;;;3.97;3.50;;;;;;;;;;5074542;28;20471;-65
2021/07/15 03:05:00;;;;;;;5.20;3.30;;;;;;;;;;5074190;28;20444;-66
2021/07/15 03:07:29;;;;;;;6.53;3.47;;;;;;;;;;5074029;28;20462;-66
2021/07/15 03:09:58;;;;;;;5.67;3.30;;;;;;;;;;5074375;28;20439;-65
2021/07/15 03:12:26;;;;;;;7.20;3.97;;;;;;;;;;5073878;28;20463;-66
2021/07/15 03:14:54;;;;;;;5.23;3.40;;;;;;;;;;5074206;28;20479;-65
2021/07/15 03:17:31;;;;;;;7.80;3.13;;;;;;;;;;5074140;28;20443;-65
2021/07/15 03:19:59;;;;;;;6.43;4.27;;;;;;;;;;5073895;28;20434;-65
2021/07/15 03:22:27;;;;;;;5.47;4.50;;;;;;;;;;5074076;28;20517;-66
2021/07/15 03:24:57;;;;;;;3.90;2.93;;;;;;;;;;5074035;28;20496;-66
2021/07/15 03:27:26;;;;;;;5.27;3.67;;;;;;;;;;5074129;28;20447;-66
2021/07/15 03:29:55;;;;;;;4.50;3.43;;;;;;;;;;5073654;28;20447;-66
2021/07/15 03:32:23;;;;;;;4.97;3.80;;;;;;;;;;5073749;28;20922;-66
2021/07/15 03:34:50;;;;;;;7.03;3.73;;;;;;;;;;5078349;28;20501;-66
2021/07/15 03:37:18;;;;;;;5.20;4.03;;;;;;;;;;5077667;28;20447;-66
2021/07/15 03:39:47;;;;;;;4.00;3.60;;;;;;;;;;5074271;28;20447;-66
2021/07/15 03:42:15;;;;;;;4.70;3.60;;;;;;;;;;5073659;28;20880;-67
2021/07/15 03:44:44;;;;;;;3.40;3.10;;;;;;;;;;5073814;28;20443;-66
2021/07/15 03:47:12;;;;;;;4.33;3.73;;;;;;;;;;5073806;28;20876;-66
2021/07/15 03:49:39;;;;;;;4.20;3.90;;;;;;;;;;5073720;28;20442;-66
2021/07/15 03:52:07;;;;;;;8.37;4.10;;;;;;;;;;5073600;28;20463;-66
2021/07/15 03:54:34;;;;;;;4.57;3.47;;;;;;;;;;5073234;28;20876;-66
2021/07/15 03:57:02;;;;;;;9.20;3.70;;;;;;;;;;5073385;28;20451;-66
2021/07/15 03:59:31;;;;;;;5.93;3.90;;;;;;;;;;5073212;28;20497;-66
2021/07/15 04:02:03;;;;;;;4.93;3.50;;;;;;;;;;5073753;28;20805;-66
2021/07/15 04:04:31;;;;;;;8.50;3.70;;;;;;;;;;5073373;28;20477;-66
2021/07/15 04:08:21;;;;;;;5.80;4.00;;;;;;;;;;5091416;27;21114;-65
2021/07/15 04:10:50;;;;;;;5.57;3.40;;;;;;;;;;5090878;28;20451;-63
2021/07/15 04:13:18;;;;;;;8.33;4.10;;;;;;;;;;5090730;28;20525;-65
2021/07/15 04:15:58;;;;;;;4.87;3.70;;;;;;;;;;5090829;28;20443;-65
2021/07/15 04:18:27;;;;;;;4.23;3.20;;;;;;;;;;5090701;28;20423;-65
2021/07/15 04:20:55;;;;;;;3.70;3.20;;;;;;;;;;5090375;28;20934;-65
2021/07/15 04:23:25;;;;;;;5.43;3.37;;;;;;;;;;5090233;28;20492;-65
2021/07/15 04:25:53;;;;;;;4.93;3.40;;;;;;;;;;5090623;28;20496;-65
2021/07/15 04:28:21;;;;;;;4.60;3.53;;;;;;;;;;5090959;28;20490;-64
2021/07/15 04:30:49;;;;;;;5.00;3.10;;;;;;;;;;5090520;28;20931;-65
2021/07/15 04:33:17;;;;;;;9.33;3.60;;;;;;;;;;5091121;28;20467;-65
2021/07/15 04:35:44;;;;;;;4.50;3.90;;;;;;;;;;5090605;28;20541;-65
2021/07/15 04:38:12;;;;;;;4.90;3.30;;;;;;;;;;5090777;28;20442;-65
2021/07/15 04:40:40;;;;;;;6.60;3.10;;;;;;;;;;5090635;28;20446;-65
2021/07/15 04:43:09;;;;;;;6.17;3.67;;;;;;;;;;5089985;28;20462;-65
2021/07/15 04:45:38;;;;;;;4.40;3.57;;;;;;;;;;5090186;28;20446;-65
2021/07/15 04:48:06;;;;;;;3.80;3.40;;;;;;;;;;5089817;28;20920;-64
2021/07/15 04:50:35;;;;;;;6.33;4.13;;;;;;;;;;5090217;28;20504;-65
2021/07/15 04:53:03;;;;;;;4.60;2.90;;;;;;;;;;5089780;28;20520;-64
2021/07/15 04:55:30;;;;;;;4.73;3.20;;;;;;;;;;5090181;28;20495;-63
2021/07/15 04:58:01;;;;;;;5.60;3.07;;;;;;;;;;5089937;28;20438;-63
2021/07/15 05:00:28;;;;;;;7.10;3.40;;;;;;;;;;5090104;28;20947;-64
2021/07/15 05:02:58;;;;;;;5.60;3.20;;;;;;;;;;5089750;28;20462;-65
2021/07/15 05:05:25;;;;;;;12.07;3.57;;;;;;;;;;5089726;28;20451;-64
2021/07/15 05:07:52;;;;;;;4.13;3.10;;;;;;;;;;5089368;28;20485;-64
2021/07/15 05:10:20;;;;;;;6.17;2.70;;;;;;;;;;5090322;28;20599;-64
2021/07/15 05:12:47;;;;;;;11.80;3.50;;;;;;;;;;5089279;28;20881;-67
2021/07/15 05:15:16;;;;;;;5.73;3.10;;;;;;;;;;5089550;28;20435;-64
2021/07/15 05:17:43;;;;;;;3.80;2.93;;;;;;;;;;5086830;28;20489;-64
2021/07/15 05:20:11;;;;;;;9.13;2.90;;;;;;;;;;5075785;28;20454;-66
2021/07/15 05:22:39;;;;;;;9.60;3.00;;;;;;;;;;5076181;28;20470;-65
2021/07/15 05:25:06;;;;;;;5.20;2.77;;;;;;;;;;5075695;28;20950;-65
2021/07/15 05:27:34;;;;;;;5.67;2.53;;;;;;;;;;5075776;28;20548;-67
2021/07/15 05:30:01;;;;;;;4.60;2.30;;;;;;;;;;5075730;28;20444;-64
2021/07/15 05:32:30;;;;;;;6.33;2.40;;;;;;;;;;5075692;28;20461;-66
2021/07/15 05:34:57;;;;;;;5.73;2.70;;;;;;;;;;5075653;28;20450;-67
2021/07/15 05:37:24;;;;;;;6.83;2.80;;;;;;;;;;5075205;28;20450;-68
2021/07/15 05:39:51;;;;;;;4.17;2.13;;;;;;;;;;5075489;28;20444;-66
2021/07/15 05:42:19;;;;;;;3.30;2.40;;;;;;;;;;5075142;28;20468;-65
2021/07/15 05:44:46;;;;;;;11.33;3.47;;;;;;;;;;5075194;28;20453;-66
2021/07/15 05:47:14;;;;;;;6.27;2.57;;;;;;;;;;5074964;28;20640;-65
2021/07/15 05:49:42;;;;;;;3.70;2.50;;;;;;;;;;5075166;28;20543;-65
2021/07/15 05:52:11;;;;;;;5.73;2.57;;;;;;;;;;5075379;28;20464;-65
2021/07/15 05:54:38;;;;;;;4.47;2.50;;;;;;;;;;5074817;28;20450;-65
2021/07/15 05:57:06;;;;;;;3.70;2.40;;;;;;;;;;5074773;28;20449;-65
2021/07/15 05:59:33;;;;;;;3.23;2.00;;;;;;;;;;5074829;28;20453;-65
2021/07/15 06:02:00;;;;;;;4.37;2.30;;;;;;;;;;5074977;28;20502;-65
2021/07/15 06:04:31;;;;;;;5.10;2.23;;;;;;;;;;5075983;28;20442;-62
2021/07/15 06:07:00;;;;;;;2.93;2.20;;;;;;;;;;5074486;28;20569;-63
2021/07/15 06:09:27;;;;;;;4.23;3.00;;;;;;;;;;5074855;28;20446;-64
2021/07/15 06:11:54;;;;;;;5.17;2.37;;;;;;;;;;5074724;28;20525;-64
2021/07/15 06:14:21;;;;;;;2.23;2.00;;;;;;;;;;5074704;28;20448;-64
2021/07/15 06:16:48;;;;;;;6.40;2.70;;;;;;;;;;5074646;28;20458;-64
2021/07/15 06:19:16;;;;;;;4.40;2.47;;;;;;;;;;5074133;28;21016;-64
2021/07/15 06:21:43;;;;;;;3.20;2.60;;;;;;;;;;5074283;28;20447;-63
2021/07/15 06:24:11;;;;;;;2.53;2.33;;;;;;;;;;5074508;28;20459;-64
2021/07/15 06:26:39;;;;;;;3.90;2.10;;;;;;;;;;5074554;28;20498;-64
2021/07/15 06:29:06;;;;;;;4.47;2.00;;;;;;;;;;5075502;28;20456;-61
2021/07/15 06:31:34;;;;;;;2.90;2.13;;;;;;;;;;5073833;28;20619;-63
2021/07/15 06:34:01;;;;;;;2.50;2.13;;;;;;;;;;5074408;28;20444;-64
2021/07/15 06:36:30;;;;;;;4.03;2.10;;;;;;;;;;5074074;28;20547;-64
2021/07/15 06:38:57;;;;;;;3.70;1.93;;;;;;;;;;5074836;28;20438;-63
2021/07/15 06:41:26;;;;;;;4.30;2.07;;;;;;;;;;5074128;28;20455;-64
2021/07/15 06:43:53;;;;;;;8.20;2.50;;;;;;;;;;5074195;28;20516;-62
2021/07/15 06:46:22;;;;;;;5.10;2.50;;;;;;;;;;5074517;28;20600;-63
2021/07/15 06:48:50;;;;;;;3.67;2.30;;;;;;;;;;5074852;28;20493;-63
2021/07/15 06:51:17;;;;;;;2.63;2.20;;;;;;;;;;5076578;28;20508;-63
2021/07/15 06:53:44;;;;;;;2.50;2.10;;;;;;;;;;5075464;28;20466;-63
2021/07/15 06:56:11;;;;;;;3.00;2.47;;;;;;;;;;5077066;28;20444;-63
2021/07/15 06:58:40;;;;;;;10.20;2.77;;;;;;;;;;5076605;28;20524;-63
2021/07/15 07:01:08;;;;;;;3.67;2.73;;;;;;;;;;5076508;28;20999;-63
2021/07/15 07:03:36;;;;;;;5.20;2.00;;;;;;;;;;5077224;28;20459;-62
2021/07/15 07:06:04;;;;;;;3.40;2.80;;;;;;;;;;5076552;28;20514;-64
2021/07/15 07:08:31;;;;;;;3.03;1.97;;;;;;;;;;5075535;28;20470;-62
2021/07/15 07:10:58;;;;;;;2.93;2.00;;;;;;;;;;5075516;28;20935;-62
2021/07/15 07:13:25;;;;;;;3.77;2.57;;;;;;;;;;5075133;28;20462;-62
2021/07/15 07:15:54;;;;;;;2.10;1.90;;;;;;;;;;5074436;28;20599;-62
2021/07/15 07:18:21;;;;;;;1.93;1.83;;;;;;;;;;5074211;28;20457;-63
2021/07/15 07:20:48;;;;;;;5.10;2.07;;;;;;;;;;5074758;28;20495;-62
2021/07/15 07:23:17;;;;;;;6.53;1.80;;;;;;;;;;5074235;28;20524;-63
2021/07/15 07:25:44;;;;;;;2.70;1.90;;;;;;;;;;5074017;28;20546;-63
2021/07/15 07:28:11;;;;;;;3.73;2.17;;;;;;;;;;5073745;28;20479;-63
2021/07/15 07:30:38;;;;;;;2.90;2.40;;;;;;;;;;5073678;28;20495;-63
2021/07/15 07:33:07;;;;;;;3.40;2.00;;;;;;;;;;5073098;28;20887;-60
2021/07/15 07:35:34;;;;;;;3.00;1.53;;;;;;;;;;5073664;28;20500;-64
2021/07/15 07:38:02;;;;;;;3.13;1.50;;;;;;;;;;5073860;28;20507;-62
2021/07/15 07:40:29;;;;;;;2.47;1.60;;;;;;;;;;5073878;28;20489;-63
2021/07/15 07:42:56;;;;;;;4.00;1.93;;;;;;;;;;5073140;28;20466;-62
2021/07/15 07:45:23;;;;;;;1.60;1.40;;;;;;;;;;5073191;28;20519;-62
2021/07/15 07:47:51;;;;;;;2.13;1.80;;;;;;;;;;5072879;28;20478;-62
2021/07/15 07:50:19;;;;;;;2.17;1.60;;;;;;;;;;5073407;28;20442;-63
2021/07/15 07:52:47;;;;;;;2.47;1.13;;;;;;;;;;5073083;28;20553;-63
2021/07/15 07:55:14;;;;;;;1.77;1.10;;;;;;;;;;5074174;28;20485;-63
2021/07/15 07:57:41;;;;;;;2.10;1.40;;;;;;;;;;5073328;28;20990;-63
2021/07/15 08:00:10;;;;;;;2.10;1.90;;;;;;;;;;5072791;28;20799;-61
2021/07/15 08:02:37;;;;;;;3.10;1.67;;;;;;;;;;5073178;28;20552;-63
2021/07/15 08:05:05;;;;;;;1.70;1.57;;;;;;;;;;5073263;28;20453;-61
2021/07/15 08:07:34;;;;;;;1.20;1.10;;;;;;;;;;5074257;28;21050;-63
2021/07/15 08:10:01;;;;;;;2.23;1.40;;;;;;;;;;5073169;28;20441;-63
2021/07/15 08:12:28;;;;;;;2.13;1.20;;;;;;;;;;5072889;28;20467;-63
2021/07/15 08:14:56;;;;;;;1.80;1.70;;;;;;;;;;5073205;28;20501;-64
2021/07/15 08:17:23;;;;;;;5.17;1.77;;;;;;;;;;5073167;28;20451;-64
2021/07/15 08:19:50;;;;;;;3.40;1.13;;;;;;;;;;5072816;28;20510;-63
2021/07/15 08:22:17;;;;;;;1.50;1.10;;;;;;;;;;5072849;28;20993;-63
2021/07/15 08:24:46;;;;;;;1.63;1.30;;;;;;;;;;5073020;28;20500;-63
2021/07/15 08:27:13;;;;;;;2.70;1.27;;;;;;;;;;5072761;28;20447;-63
2021/07/15 08:29:40;;;;;;;2.47;1.83;;;;;;;;;;5073080;28;20509;-63
2021/07/15 08:32:08;;;;;;;2.30;1.73;;;;;;;;;;5072806;28;20472;-62
2021/07/15 08:34:35;;;;;;;1.73;1.00;;;;;;;;;;5072955;28;20856;-61
2021/07/15 08:37:03;;;;;;;1.83;1.23;;;;;;;;;;5072779;28;20439;-63
2021/07/15 08:39:31;;;;;;;3.10;1.20;;;;;;;;;;5072399;28;20797;-62
2021/07/15 08:42:00;;;;;;;2.20;1.13;;;;;;;;;;5072416;28;20451;-63
2021/07/15 08:44:28;;;;;;;1.17;1.03;;;;;;;;;;5072669;28;20446;-63
2021/07/15 08:46:57;;;;;;;1.47;1.17;;;;;;;;;;5072369;28;20564;-62
2021/07/15 08:49:25;;;;;;;2.87;1.47;;;;;;;;;;5072060;28;21001;-63
2021/07/15 08:51:52;;;;;;;2.97;1.70;;;;;;;;;;5072335;28;20532;-63
2021/07/15 08:54:20;;;;;;;1.60;1.50;;;;;;;;;;5074606;28;20502;-62
2021/07/15 08:56:47;;;;;;;1.93;1.37;;;;;;;;;;5076057;28;20448;-62
2021/07/15 08:59:17;;;;;;;2.83;1.50;;;;;;;;;;5075961;28;20534;-62
2021/07/15 09:01:45;;;;;;;2.90;1.90;;;;;;;;;;5075826;28;20537;-64
2021/07/15 09:04:13;;;;;;;1.60;1.50;;;;;;;;;;5075936;28;20492;-64
2021/07/15 09:06:41;;;;;;;2.90;1.43;;;;;;;;;;5076010;28;20504;-64
2021/07/15 09:09:10;;;;;;;2.03;1.20;;;;;;;;;;5075690;28;20525;-64
2021/07/15 09:11:37;;;;;;;3.13;1.90;;;;;;;;;;5076500;28;20450;-64
2021/07/15 09:14:12;;;;;;;2.63;1.73;;;;;;;;;;5077333;28;20513;-64
2021/07/15 09:16:46;;;;;;;1.53;1.43;;;;;;;;;;5077244;28;20579;-64
2021/07/15 09:19:14;;;;;;;2.20;1.40;;;;;;;;;;5076920;28;20429;-63
2021/07/15 09:21:41;;;;;;;1.50;1.40;;;;;;;;;;5076518;28;20445;-63
2021/07/15 09:24:23;;;;;;;2.23;1.50;;;;;;;;;;5077129;28;20511;-62
2021/07/15 09:26:50;;;;;;;1.93;1.40;;;;;;;;;;5075870;28;20934;-63
2021/07/15 09:29:18;;;;;;;1.90;1.50;;;;;;;;;;5075803;28;20984;-63
2021/07/15 09:31:54;;;;;;;2.07;1.57;;;;;;;;;;5075585;28;20480;-63
2021/07/15 09:34:22;;;;;;;1.83;1.40;;;;;;;;;;5075501;28;20449;-62
2021/07/15 09:36:50;;;;;;;2.73;1.37;;;;;;;;;;5076219;28;20494;-63
2021/07/15 09:39:18;;;;;;;2.20;1.83;;;;;;;;;;5075075;28;20473;-64
2021/07/15 09:41:45;;;;;;;2.60;1.40;;;;;;;;;;5075389;28;20476;-64
2021/07/15 09:44:12;;;;;;;3.90;1.77;;;;;;;;;;5075331;28;20596;-62
2021/07/15 09:46:39;;;;;;;1.70;1.60;;;;;;;;;;5074808;28;20444;-63
2021/07/15 09:49:08;;;;;;;4.30;2.07;;;;;;;;;;5074889;28;20485;-62
2021/07/15 09:51:44;;;;;;;1.63;1.50;;;;;;;;;;5074653;28;20450;-64
2021/07/15 09:54:11;;;;;;;1.80;1.50;;;;;;;;;;5074495;28;20423;-64
2021/07/15 09:56:42;;;;;;;1.67;1.57;;;;;;;;;;5074545;28;20454;-64
2021/07/15 09:59:09;;;;;;;1.50;1.40;;;;;;;;;;5074845;28;20505;-64
2021/07/15 10:01:44;;;;;;;1.60;1.30;;;;;;;;;;5074463;28;20819;-64
2021/07/15 10:04:12;;;;;;;2.23;1.70;;;;;;;;;;5074688;28;20583;-63
2021/07/15 10:06:44;;;;;;;2.67;1.53;;;;;;;;;;5074498;28;20559;-63
2021/07/15 10:09:20;;;;;;;3.77;1.60;;;;;;;;;;5074877;28;20507;-61
2021/07/15 10:11:48;;;;;;;1.40;1.30;;;;;;;;;;5074917;28;20463;-63
2021/07/15 10:14:17;;;;;;;2.60;1.30;;;;;;;;;;5074400;28;20986;-63
2021/07/15 10:16:47;;;;;;;2.00;1.23;;;;;;;;;;5074384;28;20504;-63
2021/07/15 10:19:20;;;;;;;4.30;1.60;;;;;;;;;;5074464;28;20460;-63
2021/07/15 10:21:47;;;;;;;1.40;1.30;;;;;;;;;;5074712;28;20471;-62
2021/07/15 10:24:15;;;;;;;1.70;1.40;;;;;;;;;;5074607;28;20997;-63
2021/07/15 10:26:43;;;;;;;2.80;1.67;;;;;;;;;;5074796;28;20513;-63
2021/07/15 10:29:11;;;;;;;3.83;1.67;;;;;;;;;;5074362;28;20543;-63
2021/07/15 10:31:39;;;;;;;1.77;1.67;;;;;;;;;;5074358;28;20454;-65
2021/07/15 10:34:06;;;;;;;3.70;1.40;;;;;;;;;;5074030;28;20454;-63
2021/07/15 10:36:35;;;;;;;1.93;1.33;;;;;;;;;;5073976;28;20446;-63
2021/07/15 10:39:02;;;;;;;2.73;1.60;;;;;;;;;;5074118;28;20450;-64
2021/07/15 10:41:30;;;;;;;2.80;1.67;;;;;;;;;;5073638;28;20445;-63
2021/07/15 10:43:58;;;;;;;1.80;1.50;;;;;;;;;;5074108;28;20516;-64
2021/07/15 10:46:25;;;;;;;2.90;1.60;;;;;;;;;;5074840;28;20841;-64
2021/07/15 10:48:53;;;;;;;2.03;1.50;;;;;;;;;;5073776;28;20483;-63
2021/07/15 10:51:22;;;;;;;1.53;1.43;;;;;;;;;;5074372;28;20451;-63
2021/07/15 10:53:51;;;;;;;2.13;1.80;;;;;;;;;;5073680;28;20477;-63
2021/07/15 10:56:20;;;;;;;2.17;1.50;;;;;;;;;;5073807;28;20513;-64
2021/07/15 10:58:48;;;;;;;1.63;1.53;;;;;;;;;;5073953;28;20853;-64
2021/07/15 11:01:30;;;;;;;2.03;1.60;;;;;;;;;;5073562;28;20949;-64
2021/07/15 11:04:06;;;;;;;2.20;2.00;;;;;;;;;;5071868;28;20453;-63
2021/07/15 11:06:38;;;;;;;1.90;1.67;;;;;;;;;;5073674;28;20489;-63
2021/07/15 11:09:06;;;;;;;2.83;1.50;;;;;;;;;;5075350;28;20957;-63
2021/07/15 11:11:37;;;;;;;2.83;1.40;;;;;;;;;;5078711;28;20797;-64
2021/07/15 11:14:05;;;;;;;3.23;1.37;;;;;;;;;;5078970;28;20434;-61
2021/07/15 11:16:52;;;;;;;2.07;1.30;;;;;;;;;;5077394;28;20528;-64
2021/07/15 11:19:34;;;;;;;1.90;1.43;;;;;;;;;;5074537;28;20422;-63
2021/07/15 11:22:02;;;;;;;2.63;1.67;;;;;;;;;;5060683;28;20478;-64
2021/07/15 11:24:43;;;;;;;1.50;1.40;;;;;;;;;;5073511;28;20536;-63
2021/07/15 11:27:29;;;;;;;5.27;1.50;;;;;;;;;;5073398;28;20432;-63
2021/07/15 11:29:56;;;;;;;2.07;1.60;;;;;;;;;;5073615;28;20634;-62
2021/07/15 11:32:27;;;;;;;1.73;1.57;;;;;;;;;;5073809;28;20814;-62
2021/07/15 11:34:55;;;;;;;3.20;1.90;;;;;;;;;;5073923;28;20449;-64
2021/07/15 11:37:41;;;;;;;2.13;1.70;;;;;;;;;;5073433;28;20944;-63
2021/07/15 11:40:30;;;;;;;2.27;1.67;;;;;;;;;;5073652;28;20792;-64
2021/07/15 11:43:14;;;;;;;2.50;2.23;;;;;;;;;;5072709;28;20526;-62
2021/07/15 11:45:57;;;;;;;3.67;2.43;;;;;;;;;;5073347;28;20496;-62
2021/07/15 11:48:39;;;;;;;5.63;2.60;;;;;;;;;;5072852;28;20492;-62
2021/07/15 11:51:21;;;;;;;3.50;3.00;;;;;;;;;;5072815;28;20449;-64
2021/07/15 11:54:03;;;;;;;4.10;3.70;;;;;;;;;;5073286;28;20977;-63
2021/07/15 11:56:35;;;;;;;3.30;3.10;;;;;;;;;;5072940;28;20451;-64
2021/07/15 11:59:04;;;;;;;2.60;2.40;;;;;;;;;;5074047;28;20484;-63
2021/07/15 12:01:32;;;;;;;3.17;2.87;;;;;;;;;;5073878;28;20455;-65
2021/07/15 12:04:00;;;;;;;4.23;2.90;;;;;;;;;;5073143;28;20499;-63
2021/07/15 12:06:27;;;;;;;2.77;2.30;;;;;;;;;;5073916;28;20897;-65
2021/07/15 12:08:54;;;;;;;3.50;2.93;;;;;;;;;;5073062;28;20494;-64
2021/07/15 12:11:22;;;;;;;3.27;3.03;;;;;;;;;;5072502;28;20451;-61
2021/07/15 12:13:53;;;;;;;7.23;2.93;;;;;;;;;;5072659;28;20503;-63
2021/07/15 12:16:22;;;;;;;3.30;3.00;;;;;;;;;;5072292;28;20448;-63
2021/07/15 12:18:50;;;;;;;3.57;3.03;;;;;;;;;;5072397;28;20936;-64
2021/07/15 12:21:19;;;;;;;3.70;2.77;;;;;;;;;;5072851;28;20554;-64
2021/07/15 12:23:49;;;;;;;4.27;3.87;;;;;;;;;;5072561;28;20556;-63
2021/07/15 12:26:17;;;;;;;3.60;3.30;;;;;;;;;;5072721;28;20428;-64
2021/07/15 12:28:46;;;;;;;5.13;3.50;;;;;;;;;;5073858;28;20988;-64
2021/07/15 12:31:14;;;;;;;3.10;2.30;;;;;;;;;;5077275;28;20451;-64
2021/07/15 12:33:44;;;;;;;3.20;2.13;;;;;;;;;;5076411;28;20522;-63
2021/07/15 12:36:12;;;;;;;2.63;2.30;;;;;;;;;;5076366;28;20477;-64
2021/07/15 12:38:40;;;;;;;3.17;2.93;;;;;;;;;;5076209;28;20450;-64
2021/07/15 12:41:09;;;;;;;3.10;2.70;;;;;;;;;;5076653;28;20440;-65
2021/07/15 12:43:40;;;;;;;4.80;3.80;;;;;;;;;;5077051;28;20527;-64
2021/07/15 12:46:11;;;;;;;3.53;3.23;;;;;;;;;;5077113;28;20480;-63
2021/07/15 12:48:43;;;;;;;3.80;3.23;;;;;;;;;;5076866;28;20458;-64
2021/07/15 12:51:12;;;;;;;4.17;3.60;;;;;;;;;;5076766;28;20559;-64
2021/07/15 12:53:42;;;;;;;3.90;3.40;;;;;;;;;;5077080;28;20473;-63
2021/07/15 12:56:11;;;;;;;3.40;3.10;;;;;;;;;;5076510;28;20429;-65
2021/07/15 12:58:39;;;;;;;3.27;2.97;;;;;;;;;;5076477;28;20503;-62
2021/07/15 13:01:07;;;;;;;3.37;2.60;;;;;;;;;;5076334;28;20498;-64
2021/07/15 13:03:35;;;;;;;3.67;2.63;;;;;;;;;;5075986;28;20488;-64
2021/07/15 13:06:03;;;;;;;2.87;2.67;;;;;;;;;;5076256;28;20470;-67
2021/07/15 13:08:40;;;;;;;3.60;2.30;;;;;;;;;;5076595;28;20490;-64
2021/07/15 13:14:16;;;;;;;2.97;1.93;;;;;;;;;;5065853;28;20437;-64
2021/07/15 13:16:53;;;;;;;1.73;1.50;;;;;;;;;;5076446;28;20517;-67
2021/07/15 13:19:22;;;;;;;4.60;2.27;;;;;;;;;;5076040;28;20483;-63
2021/07/15 13:21:51;;;;;;;3.10;2.73;;;;;;;;;;5076852;28;20466;-63
2021/07/15 13:24:19;;;;;;;3.30;2.40;;;;;;;;;;5076256;28;20439;-65
2021/07/15 13:26:50;;;;;;;3.10;2.80;;;;;;;;;;5075776;28;20541;-64
2021/07/15 13:29:17;;;;;;;3.27;2.80;;;;;;;;;;5075883;28;20482;-63
2021/07/15 13:31:45;;;;;;;3.73;3.37;;;;;;;;;;5076255;28;20965;-65
2021/07/15 13:34:12;;;;;;;4.80;2.87;;;;;;;;;;5076441;28;20551;-63
2021/07/15 13:36:58;;;;;;;3.77;2.53;;;;;;;;;;5075829;28;20510;-64
2021/07/15 13:39:38;;;;;;;3.77;3.43;;;;;;;;;;5075404;28;20894;-64
2021/07/15 13:42:06;;;;;;;2.27;1.97;;;;;;;;;;5075465;28;20507;-64
2021/07/15 13:44:33;;;;;;;1.93;1.73;;;;;;;;;;5075946;28;20456;-64
2021/07/15 13:47:03;;;;;;;2.40;2.00;;;;;;;;;;5075873;28;20450;-64
2021/07/15 13:49:31;;;;;;;2.80;2.00;;;;;;;;;;5076169;28;20512;-65
2021/07/15 13:52:13;;;;;;;3.60;1.83;;;;;;;;;;5076639;28;20469;-64
2021/07/15 13:54:41;;;;;;;2.00;1.90;;;;;;;;;;5077165;28;20457;-63
2021/07/15 13:57:10;;;;;;;1.83;1.60;;;;;;;;;;5076031;28;20497;-65
2021/07/15 13:59:38;;;;;;;1.90;1.53;;;;;;;;;;5075763;28;20483;-62
2021/07/15 14:02:06;;;;;;;1.80;1.70;;;;;;;;;;5076137;28;20498;-65
2021/07/15 14:04:34;;;;;;;2.60;1.93;;;;;;;;;;5075964;28;20493;-63
2021/07/15 14:07:01;;;;;;;2.03;1.90;;;;;;;;;;5075294;28;20462;-64
2021/07/15 14:09:34;;;;;;;2.33;1.97;;;;;;;;;;5075163;28;20484;-63
2021/07/15 14:12:06;;;;;;;2.03;1.83;;;;;;;;;;5074973;28;20495;-64
2021/07/15 14:14:33;;;;;;;2.37;1.80;;;;;;;;;;5075684;28;20445;-64
2021/07/15 14:17:01;;;;;;;3.40;2.30;;;;;;;;;;5075458;28;20440;-64
2021/07/15 14:19:29;;;;;;;2.20;2.00;;;;;;;;;;5074871;28;20452;-63
2021/07/15 14:21:57;;;;;;;2.90;1.60;;;;;;;;;;5075432;28;20464;-64
2021/07/15 14:24:24;;;;;;;2.33;2.13;;;;;;;;;;5075431;28;20444;-64
2021/07/15 14:26:54;;;;;;;2.70;1.80;;;;;;;;;;5075961;28;20513;-63
2021/07/15 14:29:22;;;;;;;2.83;1.80;;;;;;;;;;5074913;28;20933;-63
2021/07/15 14:31:49;;;;;;;2.33;1.90;;;;;;;;;;5075315;28;20468;-64
2021/07/15 14:34:17;;;;;;;2.37;1.67;;;;;;;;;;5075110;28;20865;-64
2021/07/15 14:36:44;;;;;;;2.03;1.73;;;;;;;;;;5074839;28;20557;-63
2021/07/15 14:39:11;;;;;;;2.03;1.83;;;;;;;;;;5074525;28;20960;-64
2021/07/15 14:41:38;;;;;;;2.03;1.83;;;;;;;;;;5074719;28;20449;-64
2021/07/15 14:44:07;;;;;;;2.30;1.70;;;;;;;;;;5074586;28;20438;-64
2021/07/15 14:46:36;;;;;;;1.63;1.53;;;;;;;;;;5074363;28;20932;-63
2021/07/15 14:49:04;;;;;;;3.00;1.60;;;;;;;;;;5074076;28;20809;-63
2021/07/15 14:51:31;;;;;;;4.23;1.97;;;;;;;;;;5073237;28;20487;-61
2021/07/15 14:53:58;;;;;;;1.80;1.60;;;;;;;;;;5073712;28;20434;-63
2021/07/15 14:56:27;;;;;;;1.70;1.50;;;;;;;;;;5074254;28;20533;-64
2021/07/15 14:58:54;;;;;;;2.53;1.63;;;;;;;;;;5074006;28;20496;-64